sensor_id;sensor_type;location;lat;lon;timestamp;P1;durP1;ratioP1;P2;durP2;ratioP2
49910;SDS011;35803;53.096;5.844;2023-05-06T00:01:32;6.47;;;5.25;;
49910;SDS011;35803;53.096;5.844;2023-05-06T00:03:58;6.65;;;5.28;;
49910;SDS011;35803;53.096;5.844;2023-05-06T00:06:23;8.25;;;5.35;;
49910;SDS011;35803;53.096;5.844;2023-05-06T00:08:49;7.53;;;5.47;;
49910;SDS011;35803;53.096;5.844;2023-05-06T00:11:14;9.50;;;5.68;;
49910;SDS011;35803;53.096;5.844;2023-05-06T00:13:40;8.13;;;5.53;;
49910;SDS011;35803;53.096;5.844;2023-05-06T00:16:06;6.50;;;5.07;;
49910;SDS011;35803;53.096;5.844;2023-05-06T00:18:31;7.35;;;5.80;;
49910;SDS011;35803;53.096;5.844;2023-05-06T00:20:57;7.10;;;5.13;;
49910;SDS011;35803;53.096;5.844;2023-05-06T00:23:22;8.43;;;6.00;;
49910;SDS011;35803;53.096;5.844;2023-05-06T00:25:48;8.15;;;5.28;;
49910;SDS011;35803;53.096;5.844;2023-05-06T00:28:13;8.82;;;5.30;;
49910;SDS011;35803;53.096;5.844;2023-05-06T00:30:39;9.32;;;5.30;;
49910;SDS011;35803;53.096;5.844;2023-05-06T00:33:04;7.07;;;5.15;;
49910;SDS011;35803;53.096;5.844;2023-05-06T00:35:30;8.48;;;5.22;;
49910;SDS011;35803;53.096;5.844;2023-05-06T00:38:06;7.07;;;5.43;;
49910;SDS011;35803;53.096;5.844;2023-05-06T00:40:33;8.18;;;5.40;;
49910;SDS011;35803;53.096;5.844;2023-05-06T00:42:59;7.78;;;5.00;;
49910;SDS011;35803;53.096;5.844;2023-05-06T00:45:24;9.02;;;5.55;;
49910;SDS011;35803;53.096;5.844;2023-05-06T00:47:50;8.30;;;5.32;;
49910;SDS011;35803;53.096;5.844;2023-05-06T00:50:16;8.80;;;5.75;;
49910;SDS011;35803;53.096;5.844;2023-05-06T00:52:42;7.95;;;5.57;;
49910;SDS011;35803;53.096;5.844;2023-05-06T00:55:07;8.55;;;5.78;;
49910;SDS011;35803;53.096;5.844;2023-05-06T00:57:33;7.97;;;5.47;;
49910;SDS011;35803;53.096;5.844;2023-05-06T00:59:59;8.23;;;5.88;;
49910;SDS011;35803;53.096;5.844;2023-05-06T01:02:25;8.90;;;5.57;;
49910;SDS011;35803;53.096;5.844;2023-05-06T01:04:50;7.75;;;5.82;;
49910;SDS011;35803;53.096;5.844;2023-05-06T01:07:22;9.48;;;5.70;;
49910;SDS011;35803;53.096;5.844;2023-05-06T01:10:03;7.35;;;5.20;;
49910;SDS011;35803;53.096;5.844;2023-05-06T01:15:39;9.00;;;6.18;;
49910;SDS011;35803;53.096;5.844;2023-05-06T01:18:16;7.20;;;5.30;;
49910;SDS011;35803;53.096;5.844;2023-05-06T01:20:46;8.75;;;6.03;;
49910;SDS011;35803;53.096;5.844;2023-05-06T01:23:14;9.15;;;5.70;;
49910;SDS011;35803;53.096;5.844;2023-05-06T01:25:40;7.68;;;5.45;;
49910;SDS011;35803;53.096;5.844;2023-05-06T01:28:06;7.70;;;5.30;;
49910;SDS011;35803;53.096;5.844;2023-05-06T01:33:38;8.82;;;6.13;;
49910;SDS011;35803;53.096;5.844;2023-05-06T01:39:05;7.03;;;5.28;;
49910;SDS011;35803;53.096;5.844;2023-05-06T01:41:34;8.52;;;5.68;;
49910;SDS011;35803;53.096;5.844;2023-05-06T01:44:03;8.95;;;5.93;;
49910;SDS011;35803;53.096;5.844;2023-05-06T01:46:33;9.15;;;5.20;;
49910;SDS011;35803;53.096;5.844;2023-05-06T01:49:00;8.93;;;5.93;;
49910;SDS011;35803;53.096;5.844;2023-05-06T01:51:30;10.48;;;6.03;;
49910;SDS011;35803;53.096;5.844;2023-05-06T01:53:56;8.50;;;6.03;;
49910;SDS011;35803;53.096;5.844;2023-05-06T01:56:22;8.10;;;5.72;;
49910;SDS011;35803;53.096;5.844;2023-05-06T01:58:47;8.30;;;5.50;;
49910;SDS011;35803;53.096;5.844;2023-05-06T02:01:13;10.43;;;6.35;;
49910;SDS011;35803;53.096;5.844;2023-05-06T02:03:38;7.45;;;5.82;;
49910;SDS011;35803;53.096;5.844;2023-05-06T02:06:04;8.35;;;6.07;;
49910;SDS011;35803;53.096;5.844;2023-05-06T02:08:30;9.70;;;5.85;;
49910;SDS011;35803;53.096;5.844;2023-05-06T02:10:55;7.05;;;5.07;;
49910;SDS011;35803;53.096;5.844;2023-05-06T02:13:21;8.02;;;5.32;;
49910;SDS011;35803;53.096;5.844;2023-05-06T02:15:50;8.75;;;5.50;;
49910;SDS011;35803;53.096;5.844;2023-05-06T02:18:16;8.43;;;5.57;;
49910;SDS011;35803;53.096;5.844;2023-05-06T02:20:43;8.93;;;5.70;;
49910;SDS011;35803;53.096;5.844;2023-05-06T02:23:08;8.75;;;5.80;;
49910;SDS011;35803;53.096;5.844;2023-05-06T02:25:34;11.60;;;6.20;;
49910;SDS011;35803;53.096;5.844;2023-05-06T02:27:59;10.60;;;6.00;;
49910;SDS011;35803;53.096;5.844;2023-05-06T02:30:25;9.25;;;6.30;;
49910;SDS011;35803;53.096;5.844;2023-05-06T02:32:50;9.23;;;6.10;;
49910;SDS011;35803;53.096;5.844;2023-05-06T02:35:16;8.57;;;6.40;;
49910;SDS011;35803;53.096;5.844;2023-05-06T02:37:41;7.97;;;5.30;;
49910;SDS011;35803;53.096;5.844;2023-05-06T02:40:07;8.90;;;6.05;;
49910;SDS011;35803;53.096;5.844;2023-05-06T02:42:33;7.45;;;5.57;;
49910;SDS011;35803;53.096;5.844;2023-05-06T02:44:59;9.68;;;5.85;;
49910;SDS011;35803;53.096;5.844;2023-05-06T02:47:25;9.50;;;6.20;;
49910;SDS011;35803;53.096;5.844;2023-05-06T02:49:51;12.85;;;6.25;;
49910;SDS011;35803;53.096;5.844;2023-05-06T02:52:16;10.95;;;6.47;;
49910;SDS011;35803;53.096;5.844;2023-05-06T02:54:42;10.82;;;7.05;;
49910;SDS011;35803;53.096;5.844;2023-05-06T02:57:07;10.60;;;6.82;;
49910;SDS011;35803;53.096;5.844;2023-05-06T02:59:33;10.15;;;6.20;;
49910;SDS011;35803;53.096;5.844;2023-05-06T03:01:59;9.23;;;6.32;;
49910;SDS011;35803;53.096;5.844;2023-05-06T03:04:25;9.68;;;6.20;;
49910;SDS011;35803;53.096;5.844;2023-05-06T03:06:50;10.32;;;6.32;;
49910;SDS011;35803;53.096;5.844;2023-05-06T03:09:16;11.02;;;7.00;;
49910;SDS011;35803;53.096;5.844;2023-05-06T03:11:42;11.38;;;7.05;;
49910;SDS011;35803;53.096;5.844;2023-05-06T03:14:08;12.75;;;6.82;;
49910;SDS011;35803;53.096;5.844;2023-05-06T03:16:33;10.65;;;7.07;;
49910;SDS011;35803;53.096;5.844;2023-05-06T03:18:59;12.38;;;7.35;;
49910;SDS011;35803;53.096;5.844;2023-05-06T03:21:26;9.90;;;6.43;;
49910;SDS011;35803;53.096;5.844;2023-05-06T03:23:51;11.65;;;6.90;;
49910;SDS011;35803;53.096;5.844;2023-05-06T03:26:17;13.30;;;7.18;;
49910;SDS011;35803;53.096;5.844;2023-05-06T03:28:42;11.00;;;6.63;;
49910;SDS011;35803;53.096;5.844;2023-05-06T03:31:08;10.65;;;7.30;;
49910;SDS011;35803;53.096;5.844;2023-05-06T03:33:34;10.35;;;6.68;;
49910;SDS011;35803;53.096;5.844;2023-05-06T03:35:59;9.02;;;6.28;;
49910;SDS011;35803;53.096;5.844;2023-05-06T03:38:25;10.60;;;6.60;;
49910;SDS011;35803;53.096;5.844;2023-05-06T03:40:51;9.63;;;6.82;;
49910;SDS011;35803;53.096;5.844;2023-05-06T03:43:17;8.45;;;6.50;;
49910;SDS011;35803;53.096;5.844;2023-05-06T03:45:42;9.77;;;6.57;;
49910;SDS011;35803;53.096;5.844;2023-05-06T03:48:08;8.65;;;6.47;;
49910;SDS011;35803;53.096;5.844;2023-05-06T03:50:33;10.43;;;6.88;;
49910;SDS011;35803;53.096;5.844;2023-05-06T03:52:59;12.48;;;7.05;;
49910;SDS011;35803;53.096;5.844;2023-05-06T03:55:25;12.70;;;7.97;;
49910;SDS011;35803;53.096;5.844;2023-05-06T03:57:50;12.43;;;7.95;;
49910;SDS011;35803;53.096;5.844;2023-05-06T04:00:16;13.82;;;8.98;;
49910;SDS011;35803;53.096;5.844;2023-05-06T04:02:41;14.77;;;8.57;;
49910;SDS011;35803;53.096;5.844;2023-05-06T04:05:07;15.68;;;8.65;;
49910;SDS011;35803;53.096;5.844;2023-05-06T04:07:33;16.67;;;9.38;;
49910;SDS011;35803;53.096;5.844;2023-05-06T04:09:59;15.00;;;9.20;;
49910;SDS011;35803;53.096;5.844;2023-05-06T04:12:24;15.25;;;9.05;;
49910;SDS011;35803;53.096;5.844;2023-05-06T04:14:50;15.95;;;9.32;;
49910;SDS011;35803;53.096;5.844;2023-05-06T04:17:15;18.67;;;9.30;;
49910;SDS011;35803;53.096;5.844;2023-05-06T04:19:41;15.73;;;9.38;;
49910;SDS011;35803;53.096;5.844;2023-05-06T04:22:07;16.20;;;9.13;;
49910;SDS011;35803;53.096;5.844;2023-05-06T04:24:32;19.90;;;9.13;;
49910;SDS011;35803;53.096;5.844;2023-05-06T04:26:58;14.38;;;9.65;;
49910;SDS011;35803;53.096;5.844;2023-05-06T04:29:24;17.50;;;9.77;;
49910;SDS011;35803;53.096;5.844;2023-05-06T04:31:50;16.98;;;9.07;;
49910;SDS011;35803;53.096;5.844;2023-05-06T04:34:18;18.40;;;10.05;;
49910;SDS011;35803;53.096;5.844;2023-05-06T04:36:44;17.05;;;10.93;;
49910;SDS011;35803;53.096;5.844;2023-05-06T04:39:10;18.40;;;10.13;;
49910;SDS011;35803;53.096;5.844;2023-05-06T04:41:35;21.70;;;11.30;;
49910;SDS011;35803;53.096;5.844;2023-05-06T04:44:01;26.92;;;11.40;;
49910;SDS011;35803;53.096;5.844;2023-05-06T04:46:27;21.73;;;11.00;;
49910;SDS011;35803;53.096;5.844;2023-05-06T04:48:53;21.88;;;11.50;;
49910;SDS011;35803;53.096;5.844;2023-05-06T04:51:19;25.70;;;11.90;;
49910;SDS011;35803;53.096;5.844;2023-05-06T04:53:44;26.05;;;12.20;;
49910;SDS011;35803;53.096;5.844;2023-05-06T04:56:10;26.77;;;12.45;;
49910;SDS011;35803;53.096;5.844;2023-05-06T04:58:36;23.30;;;12.45;;
49910;SDS011;35803;53.096;5.844;2023-05-06T05:01:02;26.35;;;13.23;;
49910;SDS011;35803;53.096;5.844;2023-05-06T05:03:29;29.10;;;12.93;;
49910;SDS011;35803;53.096;5.844;2023-05-06T05:05:54;24.05;;;12.50;;
49910;SDS011;35803;53.096;5.844;2023-05-06T05:08:20;23.85;;;12.80;;
49910;SDS011;35803;53.096;5.844;2023-05-06T05:10:45;25.17;;;12.65;;
49910;SDS011;35803;53.096;5.844;2023-05-06T05:13:11;22.58;;;12.30;;
49910;SDS011;35803;53.096;5.844;2023-05-06T05:15:37;23.42;;;11.98;;
49910;SDS011;35803;53.096;5.844;2023-05-06T05:18:03;25.67;;;12.30;;
49910;SDS011;35803;53.096;5.844;2023-05-06T05:20:29;24.67;;;12.88;;
49910;SDS011;35803;53.096;5.844;2023-05-06T05:22:55;25.98;;;13.45;;
49910;SDS011;35803;53.096;5.844;2023-05-06T05:25:21;25.58;;;12.65;;
49910;SDS011;35803;53.096;5.844;2023-05-06T05:27:47;23.42;;;12.18;;
49910;SDS011;35803;53.096;5.844;2023-05-06T05:30:12;25.33;;;12.27;;
49910;SDS011;35803;53.096;5.844;2023-05-06T05:32:38;20.63;;;11.65;;
49910;SDS011;35803;53.096;5.844;2023-05-06T05:35:04;22.50;;;12.43;;
49910;SDS011;35803;53.096;5.844;2023-05-06T05:37:30;25.92;;;12.48;;
49910;SDS011;35803;53.096;5.844;2023-05-06T05:39:55;28.42;;;12.45;;
49910;SDS011;35803;53.096;5.844;2023-05-06T05:42:21;21.48;;;12.48;;
49910;SDS011;35803;53.096;5.844;2023-05-06T05:44:47;24.58;;;11.75;;
49910;SDS011;35803;53.096;5.844;2023-05-06T05:47:13;25.23;;;12.93;;
49910;SDS011;35803;53.096;5.844;2023-05-06T05:49:39;23.90;;;11.98;;
49910;SDS011;35803;53.096;5.844;2023-05-06T05:52:05;24.20;;;12.40;;
49910;SDS011;35803;53.096;5.844;2023-05-06T05:54:31;22.85;;;11.43;;
49910;SDS011;35803;53.096;5.844;2023-05-06T05:56:57;20.00;;;10.52;;
49910;SDS011;35803;53.096;5.844;2023-05-06T05:59:23;24.95;;;12.25;;
49910;SDS011;35803;53.096;5.844;2023-05-06T06:01:49;24.10;;;11.55;;
49910;SDS011;35803;53.096;5.844;2023-05-06T06:04:14;23.42;;;11.82;;
49910;SDS011;35803;53.096;5.844;2023-05-06T06:06:40;23.63;;;11.10;;
49910;SDS011;35803;53.096;5.844;2023-05-06T06:09:05;26.02;;;10.80;;
49910;SDS011;35803;53.096;5.844;2023-05-06T06:11:31;24.20;;;11.25;;
49910;SDS011;35803;53.096;5.844;2023-05-06T06:13:56;19.70;;;10.35;;
49910;SDS011;35803;53.096;5.844;2023-05-06T06:16:22;20.08;;;9.70;;
49910;SDS011;35803;53.096;5.844;2023-05-06T06:18:47;19.40;;;9.32;;
49910;SDS011;35803;53.096;5.844;2023-05-06T06:21:13;17.23;;;9.15;;
49910;SDS011;35803;53.096;5.844;2023-05-06T06:23:38;18.77;;;8.88;;
49910;SDS011;35803;53.096;5.844;2023-05-06T06:26:04;17.70;;;9.15;;
49910;SDS011;35803;53.096;5.844;2023-05-06T06:28:29;16.60;;;9.07;;
49910;SDS011;35803;53.096;5.844;2023-05-06T06:30:55;18.02;;;9.63;;
49910;SDS011;35803;53.096;5.844;2023-05-06T06:33:21;21.55;;;10.35;;
49910;SDS011;35803;53.096;5.844;2023-05-06T06:35:46;18.92;;;9.85;;
49910;SDS011;35803;53.096;5.844;2023-05-06T06:38:11;19.25;;;10.13;;
49910;SDS011;35803;53.096;5.844;2023-05-06T06:40:37;19.30;;;10.32;;
49910;SDS011;35803;53.096;5.844;2023-05-06T06:43:02;22.27;;;10.45;;
49910;SDS011;35803;53.096;5.844;2023-05-06T06:45:28;19.27;;;9.98;;
49910;SDS011;35803;53.096;5.844;2023-05-06T06:47:54;20.10;;;10.70;;
49910;SDS011;35803;53.096;5.844;2023-05-06T06:50:19;22.52;;;11.75;;
49910;SDS011;35803;53.096;5.844;2023-05-06T06:52:45;25.15;;;12.30;;
49910;SDS011;35803;53.096;5.844;2023-05-06T06:55:10;25.08;;;13.18;;
49910;SDS011;35803;53.096;5.844;2023-05-06T06:57:37;21.60;;;12.65;;
49910;SDS011;35803;53.096;5.844;2023-05-06T07:00:03;25.83;;;12.93;;
49910;SDS011;35803;53.096;5.844;2023-05-06T07:02:29;24.55;;;12.90;;
49910;SDS011;35803;53.096;5.844;2023-05-06T07:04:55;23.02;;;12.10;;
49910;SDS011;35803;53.096;5.844;2023-05-06T07:07:20;19.88;;;10.75;;
49910;SDS011;35803;53.096;5.844;2023-05-06T07:09:46;21.85;;;11.65;;
49910;SDS011;35803;53.096;5.844;2023-05-06T07:12:11;19.38;;;11.10;;
49910;SDS011;35803;53.096;5.844;2023-05-06T07:14:37;20.23;;;10.48;;
49910;SDS011;35803;53.096;5.844;2023-05-06T07:17:03;20.75;;;9.95;;
49910;SDS011;35803;53.096;5.844;2023-05-06T07:19:28;16.58;;;9.15;;
49910;SDS011;35803;53.096;5.844;2023-05-06T07:21:55;15.43;;;8.57;;
49910;SDS011;35803;53.096;5.844;2023-05-06T07:24:21;13.65;;;8.00;;
49910;SDS011;35803;53.096;5.844;2023-05-06T07:26:46;12.80;;;7.68;;
49910;SDS011;35803;53.096;5.844;2023-05-06T07:29:12;11.43;;;6.82;;
49910;SDS011;35803;53.096;5.844;2023-05-06T07:31:37;9.68;;;6.57;;
49910;SDS011;35803;53.096;5.844;2023-05-06T07:34:03;10.20;;;6.70;;
49910;SDS011;35803;53.096;5.844;2023-05-06T07:36:29;9.50;;;6.43;;
49910;SDS011;35803;53.096;5.844;2023-05-06T07:38:59;12.38;;;5.88;;
49910;SDS011;35803;53.096;5.844;2023-05-06T07:41:25;9.93;;;5.93;;
49910;SDS011;35803;53.096;5.844;2023-05-06T07:43:50;9.73;;;6.25;;
49910;SDS011;35803;53.096;5.844;2023-05-06T07:46:16;8.70;;;6.20;;
49910;SDS011;35803;53.096;5.844;2023-05-06T07:48:41;7.88;;;4.82;;
49910;SDS011;35803;53.096;5.844;2023-05-06T07:51:07;8.77;;;4.70;;
49910;SDS011;35803;53.096;5.844;2023-05-06T07:53:32;7.97;;;4.75;;
49910;SDS011;35803;53.096;5.844;2023-05-06T07:55:58;7.68;;;5.03;;
49910;SDS011;35803;53.096;5.844;2023-05-06T07:58:30;7.65;;;4.53;;
49910;SDS011;35803;53.096;5.844;2023-05-06T08:00:56;7.63;;;4.97;;
49910;SDS011;35803;53.096;5.844;2023-05-06T08:03:22;8.23;;;5.38;;
49910;SDS011;35803;53.096;5.844;2023-05-06T08:05:50;7.38;;;4.93;;
49910;SDS011;35803;53.096;5.844;2023-05-06T08:08:19;7.90;;;5.10;;
49910;SDS011;35803;53.096;5.844;2023-05-06T08:10:46;8.65;;;5.40;;
49910;SDS011;35803;53.096;5.844;2023-05-06T08:13:11;7.10;;;4.85;;
49910;SDS011;35803;53.096;5.844;2023-05-06T08:15:37;9.15;;;6.00;;
49910;SDS011;35803;53.096;5.844;2023-05-06T08:18:03;9.60;;;6.45;;
49910;SDS011;35803;53.096;5.844;2023-05-06T08:20:29;8.93;;;5.95;;
49910;SDS011;35803;53.096;5.844;2023-05-06T08:22:55;9.40;;;6.30;;
49910;SDS011;35803;53.096;5.844;2023-05-06T08:25:20;11.23;;;6.50;;
49910;SDS011;35803;53.096;5.844;2023-05-06T08:27:46;11.93;;;6.97;;
49910;SDS011;35803;53.096;5.844;2023-05-06T08:30:12;9.50;;;6.05;;
49910;SDS011;35803;53.096;5.844;2023-05-06T08:32:38;11.38;;;6.28;;
49910;SDS011;35803;53.096;5.844;2023-05-06T08:35:07;9.60;;;6.55;;
49910;SDS011;35803;53.096;5.844;2023-05-06T08:37:33;7.68;;;5.78;;
49910;SDS011;35803;53.096;5.844;2023-05-06T08:39:58;9.15;;;5.22;;
49910;SDS011;35803;53.096;5.844;2023-05-06T08:42:28;9.18;;;5.63;;
49910;SDS011;35803;53.096;5.844;2023-05-06T08:44:55;9.30;;;5.47;;
49910;SDS011;35803;53.096;5.844;2023-05-06T08:47:21;8.18;;;5.60;;
49910;SDS011;35803;53.096;5.844;2023-05-06T08:49:49;9.65;;;5.95;;
49910;SDS011;35803;53.096;5.844;2023-05-06T08:52:15;10.00;;;6.22;;
49910;SDS011;35803;53.096;5.844;2023-05-06T08:54:45;9.35;;;5.72;;
49910;SDS011;35803;53.096;5.844;2023-05-06T08:57:11;8.77;;;6.15;;
49910;SDS011;35803;53.096;5.844;2023-05-06T08:59:37;8.13;;;5.85;;
49910;SDS011;35803;53.096;5.844;2023-05-06T09:02:04;9.40;;;6.47;;
49910;SDS011;35803;53.096;5.844;2023-05-06T09:04:30;10.65;;;6.22;;
49910;SDS011;35803;53.096;5.844;2023-05-06T09:06:56;9.05;;;6.10;;
49910;SDS011;35803;53.096;5.844;2023-05-06T09:09:22;9.75;;;6.75;;
49910;SDS011;35803;53.096;5.844;2023-05-06T09:11:48;8.90;;;5.90;;
49910;SDS011;35803;53.096;5.844;2023-05-06T09:14:22;12.27;;;6.95;;
49910;SDS011;35803;53.096;5.844;2023-05-06T09:16:51;11.48;;;7.75;;
49910;SDS011;35803;53.096;5.844;2023-05-06T09:19:17;10.52;;;7.00;;
49910;SDS011;35803;53.096;5.844;2023-05-06T09:21:45;12.57;;;7.32;;
49910;SDS011;35803;53.096;5.844;2023-05-06T09:24:12;10.25;;;7.57;;
49910;SDS011;35803;53.096;5.844;2023-05-06T09:26:40;12.05;;;7.75;;
49910;SDS011;35803;53.096;5.844;2023-05-06T09:29:06;11.50;;;7.30;;
49910;SDS011;35803;53.096;5.844;2023-05-06T09:31:34;10.35;;;6.90;;
49910;SDS011;35803;53.096;5.844;2023-05-06T09:36:30;11.73;;;7.80;;
49910;SDS011;35803;53.096;5.844;2023-05-06T09:38:56;11.93;;;8.27;;
49910;SDS011;35803;53.096;5.844;2023-05-06T09:41:22;11.18;;;7.85;;
49910;SDS011;35803;53.096;5.844;2023-05-06T09:43:53;10.23;;;7.80;;
49910;SDS011;35803;53.096;5.844;2023-05-06T09:46:20;11.52;;;7.60;;
49910;SDS011;35803;53.096;5.844;2023-05-06T09:48:47;14.60;;;8.90;;
49910;SDS011;35803;53.096;5.844;2023-05-06T09:51:14;12.65;;;8.52;;
49910;SDS011;35803;53.096;5.844;2023-05-06T09:53:40;12.75;;;8.30;;
49910;SDS011;35803;53.096;5.844;2023-05-06T09:56:08;14.63;;;9.13;;
49910;SDS011;35803;53.096;5.844;2023-05-06T09:58:37;17.13;;;10.98;;
49910;SDS011;35803;53.096;5.844;2023-05-06T10:01:04;15.80;;;10.40;;
49910;SDS011;35803;53.096;5.844;2023-05-06T10:03:34;15.68;;;10.25;;
49910;SDS011;35803;53.096;5.844;2023-05-06T10:06:01;17.40;;;10.30;;
49910;SDS011;35803;53.096;5.844;2023-05-06T10:08:27;14.18;;;9.57;;
49910;SDS011;35803;53.096;5.844;2023-05-06T10:10:53;18.75;;;11.25;;
49910;SDS011;35803;53.096;5.844;2023-05-06T10:13:19;16.15;;;10.77;;
49910;SDS011;35803;53.096;5.844;2023-05-06T10:15:46;18.63;;;11.15;;
49910;SDS011;35803;53.096;5.844;2023-05-06T10:18:16;17.60;;;11.10;;
49910;SDS011;35803;53.096;5.844;2023-05-06T10:20:43;19.15;;;11.75;;
49910;SDS011;35803;53.096;5.844;2023-05-06T10:23:21;16.90;;;10.95;;
49910;SDS011;35803;53.096;5.844;2023-05-06T10:25:50;19.08;;;12.10;;
49910;SDS011;35803;53.096;5.844;2023-05-06T10:28:19;17.85;;;11.70;;
49910;SDS011;35803;53.096;5.844;2023-05-06T10:30:45;15.65;;;11.38;;
49910;SDS011;35803;53.096;5.844;2023-05-06T10:33:12;17.67;;;12.35;;
49910;SDS011;35803;53.096;5.844;2023-05-06T10:38:06;19.77;;;11.93;;
49910;SDS011;35803;53.096;5.844;2023-05-06T10:40:35;17.25;;;12.02;;
49910;SDS011;35803;53.096;5.844;2023-05-06T10:51:31;18.58;;;13.10;;
49910;SDS011;35803;53.096;5.844;2023-05-06T10:54:04;17.65;;;11.90;;
49910;SDS011;35803;53.096;5.844;2023-05-06T10:59:09;18.85;;;12.27;;
49910;SDS011;35803;53.096;5.844;2023-05-06T11:01:39;19.00;;;12.50;;
49910;SDS011;35803;53.096;5.844;2023-05-06T11:04:07;18.55;;;12.07;;
49910;SDS011;35803;53.096;5.844;2023-05-06T11:06:40;17.63;;;11.80;;
49910;SDS011;35803;53.096;5.844;2023-05-06T11:09:16;17.83;;;11.48;;
49910;SDS011;35803;53.096;5.844;2023-05-06T11:14:24;13.77;;;8.63;;
49910;SDS011;35803;53.096;5.844;2023-05-06T11:16:53;11.25;;;7.65;;
49910;SDS011;35803;53.096;5.844;2023-05-06T11:19:25;11.80;;;8.63;;
49910;SDS011;35803;53.096;5.844;2023-05-06T11:21:58;11.38;;;8.13;;
49910;SDS011;35803;53.096;5.844;2023-05-06T11:26:59;12.07;;;9.32;;
49910;SDS011;35803;53.096;5.844;2023-05-06T11:29:25;12.93;;;8.13;;
49910;SDS011;35803;53.096;5.844;2023-05-06T11:31:51;9.80;;;6.40;;
49910;SDS011;35803;53.096;5.844;2023-05-06T11:34:24;10.18;;;6.28;;
49910;SDS011;35803;53.096;5.844;2023-05-06T11:36:56;9.38;;;6.18;;
49910;SDS011;35803;53.096;5.844;2023-05-06T11:39:24;10.18;;;6.60;;
49910;SDS011;35803;53.096;5.844;2023-05-06T11:41:57;11.40;;;6.53;;
49910;SDS011;35803;53.096;5.844;2023-05-06T11:44:26;13.63;;;7.35;;
49910;SDS011;35803;53.096;5.844;2023-05-06T11:46:57;7.45;;;6.05;;
49910;SDS011;35803;53.096;5.844;2023-05-06T11:49:29;9.40;;;6.35;;
49910;SDS011;35803;53.096;5.844;2023-05-06T11:51:59;10.15;;;6.93;;
49910;SDS011;35803;53.096;5.844;2023-05-06T11:54:25;14.00;;;7.70;;
49910;SDS011;35803;53.096;5.844;2023-05-06T11:56:51;12.05;;;8.23;;
49910;SDS011;35803;53.096;5.844;2023-05-06T11:59:26;13.05;;;8.45;;
49910;SDS011;35803;53.096;5.844;2023-05-06T12:01:56;15.05;;;8.02;;
49910;SDS011;35803;53.096;5.844;2023-05-06T12:04:23;14.88;;;9.02;;
49910;SDS011;35803;53.096;5.844;2023-05-06T12:06:48;11.88;;;8.15;;
49910;SDS011;35803;53.096;5.844;2023-05-06T12:09:14;11.60;;;7.95;;
49910;SDS011;35803;53.096;5.844;2023-05-06T12:11:40;13.45;;;8.75;;
49910;SDS011;35803;53.096;5.844;2023-05-06T12:14:06;14.38;;;8.77;;
49910;SDS011;35803;53.096;5.844;2023-05-06T12:16:33;10.43;;;6.78;;
49910;SDS011;35803;53.096;5.844;2023-05-06T12:19:00;11.15;;;5.97;;
49910;SDS011;35803;53.096;5.844;2023-05-06T12:21:26;9.77;;;6.57;;
49910;SDS011;35803;53.096;5.844;2023-05-06T12:23:54;9.27;;;6.68;;
49910;SDS011;35803;53.096;5.844;2023-05-06T12:26:26;10.73;;;7.72;;
49910;SDS011;35803;53.096;5.844;2023-05-06T12:29:04;12.18;;;8.02;;
49910;SDS011;35803;53.096;5.844;2023-05-06T12:31:32;13.32;;;7.88;;
49910;SDS011;35803;53.096;5.844;2023-05-06T12:33:57;12.02;;;6.93;;
49910;SDS011;35803;53.096;5.844;2023-05-06T12:36:23;10.30;;;6.70;;
49910;SDS011;35803;53.096;5.844;2023-05-06T12:38:49;10.63;;;7.20;;
49910;SDS011;35803;53.096;5.844;2023-05-06T12:41:22;12.13;;;7.07;;
49910;SDS011;35803;53.096;5.844;2023-05-06T12:43:48;12.07;;;6.35;;
49910;SDS011;35803;53.096;5.844;2023-05-06T12:46:15;9.30;;;5.97;;
49910;SDS011;35803;53.096;5.844;2023-05-06T12:48:54;10.27;;;6.38;;
49910;SDS011;35803;53.096;5.844;2023-05-06T12:51:28;9.90;;;6.13;;
49910;SDS011;35803;53.096;5.844;2023-05-06T12:53:57;8.55;;;5.38;;
49910;SDS011;35803;53.096;5.844;2023-05-06T12:56:22;7.97;;;6.10;;
49910;SDS011;35803;53.096;5.844;2023-05-06T12:58:58;9.25;;;6.57;;
49910;SDS011;35803;53.096;5.844;2023-05-06T13:01:24;7.88;;;5.63;;
49910;SDS011;35803;53.096;5.844;2023-05-06T13:03:50;8.57;;;6.63;;
49910;SDS011;35803;53.096;5.844;2023-05-06T13:06:16;10.82;;;7.53;;
49910;SDS011;35803;53.096;5.844;2023-05-06T13:08:42;10.18;;;6.95;;
49910;SDS011;35803;53.096;5.844;2023-05-06T13:11:08;9.25;;;6.88;;
49910;SDS011;35803;53.096;5.844;2023-05-06T13:13:33;7.60;;;4.65;;
49910;SDS011;35803;53.096;5.844;2023-05-06T13:16:01;5.47;;;3.90;;
49910;SDS011;35803;53.096;5.844;2023-05-06T13:18:26;5.95;;;3.78;;
49910;SDS011;35803;53.096;5.844;2023-05-06T13:20:53;6.68;;;4.28;;
49910;SDS011;35803;53.096;5.844;2023-05-06T13:23:19;6.15;;;4.10;;
49910;SDS011;35803;53.096;5.844;2023-05-06T13:25:45;13.38;;;8.10;;
49910;SDS011;35803;53.096;5.844;2023-05-06T13:28:10;6.30;;;5.35;;
49910;SDS011;35803;53.096;5.844;2023-05-06T13:30:36;7.45;;;5.10;;
49910;SDS011;35803;53.096;5.844;2023-05-06T13:33:01;8.00;;;5.30;;
49910;SDS011;35803;53.096;5.844;2023-05-06T13:35:27;9.82;;;5.30;;
49910;SDS011;35803;53.096;5.844;2023-05-06T13:37:54;4.85;;;3.75;;
49910;SDS011;35803;53.096;5.844;2023-05-06T13:40:20;8.00;;;3.40;;
49910;SDS011;35803;53.096;5.844;2023-05-06T13:42:45;3.83;;;3.22;;
49910;SDS011;35803;53.096;5.844;2023-05-06T13:45:11;5.03;;;3.50;;
49910;SDS011;35803;53.096;5.844;2023-05-06T13:47:36;6.28;;;3.60;;
49910;SDS011;35803;53.096;5.844;2023-05-06T13:50:02;6.22;;;3.22;;
49910;SDS011;35803;53.096;5.844;2023-05-06T13:52:29;5.65;;;4.00;;
49910;SDS011;35803;53.096;5.844;2023-05-06T13:54:55;6.03;;;4.43;;
49910;SDS011;35803;53.096;5.844;2023-05-06T13:57:21;7.53;;;3.72;;
49910;SDS011;35803;53.096;5.844;2023-05-06T13:59:50;5.55;;;4.22;;
49910;SDS011;35803;53.096;5.844;2023-05-06T14:02:15;7.40;;;4.70;;
49910;SDS011;35803;53.096;5.844;2023-05-06T14:04:41;5.78;;;4.30;;
49910;SDS011;35803;53.096;5.844;2023-05-06T14:07:06;7.22;;;4.28;;
49910;SDS011;35803;53.096;5.844;2023-05-06T14:09:32;8.35;;;4.70;;
49910;SDS011;35803;53.096;5.844;2023-05-06T14:11:58;6.78;;;4.75;;
49910;SDS011;35803;53.096;5.844;2023-05-06T14:14:24;7.07;;;5.35;;
49910;SDS011;35803;53.096;5.844;2023-05-06T14:16:49;8.32;;;5.18;;
49910;SDS011;35803;53.096;5.844;2023-05-06T14:19:18;6.80;;;4.82;;
49910;SDS011;35803;53.096;5.844;2023-05-06T14:21:44;8.80;;;5.60;;
49910;SDS011;35803;53.096;5.844;2023-05-06T14:24:09;8.38;;;5.88;;
49910;SDS011;35803;53.096;5.844;2023-05-06T14:26:39;9.10;;;5.78;;
49910;SDS011;35803;53.096;5.844;2023-05-06T14:29:05;9.38;;;5.78;;
49910;SDS011;35803;53.096;5.844;2023-05-06T14:31:32;8.88;;;5.00;;
49910;SDS011;35803;53.096;5.844;2023-05-06T14:33:58;7.03;;;5.60;;
49910;SDS011;35803;53.096;5.844;2023-05-06T14:36:24;6.97;;;5.15;;
49910;SDS011;35803;53.096;5.844;2023-05-06T14:38:49;8.02;;;4.97;;
49910;SDS011;35803;53.096;5.844;2023-05-06T14:41:15;8.05;;;5.05;;
49910;SDS011;35803;53.096;5.844;2023-05-06T14:43:40;8.20;;;4.55;;
49910;SDS011;35803;53.096;5.844;2023-05-06T14:46:06;7.03;;;5.03;;
49910;SDS011;35803;53.096;5.844;2023-05-06T14:48:31;7.95;;;4.70;;
49910;SDS011;35803;53.096;5.844;2023-05-06T14:50:58;5.95;;;3.95;;
49910;SDS011;35803;53.096;5.844;2023-05-06T14:53:23;4.28;;;2.97;;
49910;SDS011;35803;53.096;5.844;2023-05-06T14:55:49;4.50;;;2.95;;
49910;SDS011;35803;53.096;5.844;2023-05-06T14:58:15;3.47;;;2.88;;
49910;SDS011;35803;53.096;5.844;2023-05-06T15:00:43;4.13;;;2.30;;
49910;SDS011;35803;53.096;5.844;2023-05-06T15:03:09;2.97;;;2.20;;
49910;SDS011;35803;53.096;5.844;2023-05-06T15:05:37;5.45;;;2.60;;